sensor_id;sensor_type;location;lat;lon;timestamp;temperature;humidity
3005;DHT22;1512;51.486;6.610;2023-08-24T00:02:32;19.70;1.00
3005;DHT22;1512;51.486;6.610;2023-08-24T00:06:41;19.60;1.00
3005;DHT22;1512;51.486;6.610;2023-08-24T00:10:50;19.60;1.00
3005;DHT22;1512;51.486;6.610;2023-08-24T00:14:58;19.60;1.00
3005;DHT22;1512;51.486;6.610;2023-08-24T00:19:07;19.60;1.00
3005;DHT22;1512;51.486;6.610;2023-08-24T00:23:16;19.60;1.00
3005;DHT22;1512;51.486;6.610;2023-08-24T00:27:25;19.40;1.00
3005;DHT22;1512;51.486;6.610;2023-08-24T00:31:34;19.40;1.00
3005;DHT22;1512;51.486;6.610;2023-08-24T00:35:43;19.40;1.00
3005;DHT22;1512;51.486;6.610;2023-08-24T00:39:52;19.30;1.00
3005;DHT22;1512;51.486;6.610;2023-08-24T00:44:00;19.30;1.00
3005;DHT22;1512;51.486;6.610;2023-08-24T00:48:10;19.30;1.00
3005;DHT22;1512;51.486;6.610;2023-08-24T00:52:18;19.20;1.00
3005;DHT22;1512;51.486;6.610;2023-08-24T00:56:27;19.10;1.00
3005;DHT22;1512;51.486;6.610;2023-08-24T01:00:38;19.10;1.00
3005;DHT22;1512;51.486;6.610;2023-08-24T01:04:47;19.10;1.00
3005;DHT22;1512;51.486;6.610;2023-08-24T01:08:56;19.10;1.00
3005;DHT22;1512;51.486;6.610;2023-08-24T01:13:09;19.10;1.00
3005;DHT22;1512;51.486;6.610;2023-08-24T01:17:22;19.10;1.00
3005;DHT22;1512;51.486;6.610;2023-08-24T01:21:31;19.00;1.00
3005;DHT22;1512;51.486;6.610;2023-08-24T01:30:12;19.00;1.00
3005;DHT22;1512;51.486;6.610;2023-08-24T01:34:20;18.90;1.00
3005;DHT22;1512;51.486;6.610;2023-08-24T01:38:35;18.90;1.00
3005;DHT22;1512;51.486;6.610;2023-08-24T01:42:50;18.80;1.00
3005;DHT22;1512;51.486;6.610;2023-08-24T01:47:01;18.70;1.00
3005;DHT22;1512;51.486;6.610;2023-08-24T01:51:11;18.70;1.00
3005;DHT22;1512;51.486;6.610;2023-08-24T01:55:20;18.70;1.00
3005;DHT22;1512;51.486;6.610;2023-08-24T01:59:29;18.70;1.00
3005;DHT22;1512;51.486;6.610;2023-08-24T02:03:38;18.70;1.00
3005;DHT22;1512;51.486;6.610;2023-08-24T02:07:47;18.70;1.00
3005;DHT22;1512;51.486;6.610;2023-08-24T02:11:56;18.70;1.00
3005;DHT22;1512;51.486;6.610;2023-08-24T02:16:07;18.70;1.00
3005;DHT22;1512;51.486;6.610;2023-08-24T02:20:17;18.50;1.00
3005;DHT22;1512;51.486;6.610;2023-08-24T02:24:25;18.50;1.00
3005;DHT22;1512;51.486;6.610;2023-08-24T02:28:36;18.50;1.00
3005;DHT22;1512;51.486;6.610;2023-08-24T02:32:45;18.50;1.00
3005;DHT22;1512;51.486;6.610;2023-08-24T02:36:53;18.50;1.00
3005;DHT22;1512;51.486;6.610;2023-08-24T02:41:03;18.50;1.00
3005;DHT22;1512;51.486;6.610;2023-08-24T02:45:12;18.50;1.00
3005;DHT22;1512;51.486;6.610;2023-08-24T02:49:21;18.50;1.00
3005;DHT22;1512;51.486;6.610;2023-08-24T02:53:29;18.50;18.80
3005;DHT22;1512;51.486;6.610;2023-08-24T02:57:38;18.40;48.70
3005;DHT22;1512;51.486;6.610;2023-08-24T03:01:47;18.50;59.00
3005;DHT22;1512;51.486;6.610;2023-08-24T03:06:00;18.50;79.10
3005;DHT22;1512;51.486;6.610;2023-08-24T03:10:09;18.50;78.30
3005;DHT22;1512;51.486;6.610;2023-08-24T03:14:18;18.60;65.70
3005;DHT22;1512;51.486;6.610;2023-08-24T03:18:46;18.60;55.10
3005;DHT22;1512;51.486;6.610;2023-08-24T03:22:55;18.50;95.30
3005;DHT22;1512;51.486;6.610;2023-08-24T03:27:05;18.50;99.90
3005;DHT22;1512;51.486;6.610;2023-08-24T03:31:13;18.60;99.90
3005;DHT22;1512;51.486;6.610;2023-08-24T03:35:22;18.60;99.90
3005;DHT22;1512;51.486;6.610;2023-08-24T03:39:31;18.60;99.90
3005;DHT22;1512;51.486;6.610;2023-08-24T03:43:40;18.70;99.90
3005;DHT22;1512;51.486;6.610;2023-08-24T03:47:49;18.70;99.90
3005;DHT22;1512;51.486;6.610;2023-08-24T03:51:58;18.80;99.90
3005;DHT22;1512;51.486;6.610;2023-08-24T03:56:06;18.70;99.90
3005;DHT22;1512;51.486;6.610;2023-08-24T04:00:16;18.70;99.90
3005;DHT22;1512;51.486;6.610;2023-08-24T04:04:24;18.60;99.90
3005;DHT22;1512;51.486;6.610;2023-08-24T04:08:33;18.50;99.90
3005;DHT22;1512;51.486;6.610;2023-08-24T04:12:42;18.50;1.00
3005;DHT22;1512;51.486;6.610;2023-08-24T04:16:50;18.60;1.00
3005;DHT22;1512;51.486;6.610;2023-08-24T04:21:00;18.60;1.00
3005;DHT22;1512;51.486;6.610;2023-08-24T04:25:09;18.60;1.00
3005;DHT22;1512;51.486;6.610;2023-08-24T04:29:37;18.60;1.00
3005;DHT22;1512;51.486;6.610;2023-08-24T04:33:45;18.60;27.70
3005;DHT22;1512;51.486;6.610;2023-08-24T04:37:54;18.40;1.00
3005;DHT22;1512;51.486;6.610;2023-08-24T04:42:02;18.30;1.00
3005;DHT22;1512;51.486;6.610;2023-08-24T04:46:11;18.30;1.00
3005;DHT22;1512;51.486;6.610;2023-08-24T04:50:20;18.30;1.00
3005;DHT22;1512;51.486;6.610;2023-08-24T04:54:29;18.40;99.90
3005;DHT22;1512;51.486;6.610;2023-08-24T04:58:37;18.50;1.00
3005;DHT22;1512;51.486;6.610;2023-08-24T05:02:46;18.60;1.00
3005;DHT22;1512;51.486;6.610;2023-08-24T05:06:54;18.60;99.90
3005;DHT22;1512;51.486;6.610;2023-08-24T05:11:17;18.60;14.90
3005;DHT22;1512;51.486;6.610;2023-08-24T05:15:29;18.70;1.00
3005;DHT22;1512;51.486;6.610;2023-08-24T05:19:38;18.60;1.00
3005;DHT22;1512;51.486;6.610;2023-08-24T05:23:52;18.60;1.00
3005;DHT22;1512;51.486;6.610;2023-08-24T05:28:01;18.70;1.00
3005;DHT22;1512;51.486;6.610;2023-08-24T05:32:10;18.70;1.00
3005;DHT22;1512;51.486;6.610;2023-08-24T05:36:19;18.70;1.00
3005;DHT22;1512;51.486;6.610;2023-08-24T05:40:28;18.70;99.90
3005;DHT22;1512;51.486;6.610;2023-08-24T05:44:36;18.70;99.90
3005;DHT22;1512;51.486;6.610;2023-08-24T05:48:45;18.80;99.90
3005;DHT22;1512;51.486;6.610;2023-08-24T05:52:54;18.90;99.90
3005;DHT22;1512;51.486;6.610;2023-08-24T05:57:03;19.00;99.90
3005;DHT22;1512;51.486;6.610;2023-08-24T06:01:12;19.00;99.90
3005;DHT22;1512;51.486;6.610;2023-08-24T06:05:20;19.00;99.90
3005;DHT22;1512;51.486;6.610;2023-08-24T06:09:30;19.00;99.90
3005;DHT22;1512;51.486;6.610;2023-08-24T06:13:50;19.10;99.90
3005;DHT22;1512;51.486;6.610;2023-08-24T06:18:00;19.10;99.90
3005;DHT22;1512;51.486;6.610;2023-08-24T06:22:09;19.20;99.90
3005;DHT22;1512;51.486;6.610;2023-08-24T06:26:17;19.30;99.90
3005;DHT22;1512;51.486;6.610;2023-08-24T06:30:27;19.50;99.90
3005;DHT22;1512;51.486;6.610;2023-08-24T06:34:36;19.60;26.00
3005;DHT22;1512;51.486;6.610;2023-08-24T06:38:44;19.70;35.70
3005;DHT22;1512;51.486;6.610;2023-08-24T06:42:53;19.80;28.70
3005;DHT22;1512;51.486;6.610;2023-08-24T06:47:02;19.90;1.00
3005;DHT22;1512;51.486;6.610;2023-08-24T06:51:12;19.90;1.00
3005;DHT22;1512;51.486;6.610;2023-08-24T06:55:21;19.90;1.00
3005;DHT22;1512;51.486;6.610;2023-08-24T06:59:29;19.90;1.00
3005;DHT22;1512;51.486;6.610;2023-08-24T07:03:38;20.00;1.00
3005;DHT22;1512;51.486;6.610;2023-08-24T07:07:49;20.10;1.00
3005;DHT22;1512;51.486;6.610;2023-08-24T07:11:58;20.20;1.00
3005;DHT22;1512;51.486;6.610;2023-08-24T07:16:07;20.30;1.00
3005;DHT22;1512;51.486;6.610;2023-08-24T07:20:15;20.40;1.00
3005;DHT22;1512;51.486;6.610;2023-08-24T07:24:24;20.50;1.00
3005;DHT22;1512;51.486;6.610;2023-08-24T07:28:38;20.60;1.00
3005;DHT22;1512;51.486;6.610;2023-08-24T07:32:47;20.80;1.00
3005;DHT22;1512;51.486;6.610;2023-08-24T07:36:56;20.90;1.00
3005;DHT22;1512;51.486;6.610;2023-08-24T07:41:04;21.10;1.00
3005;DHT22;1512;51.486;6.610;2023-08-24T07:45:14;21.20;1.00
3005;DHT22;1512;51.486;6.610;2023-08-24T07:49:22;21.40;1.00
3005;DHT22;1512;51.486;6.610;2023-08-24T07:53:31;21.50;1.00
3005;DHT22;1512;51.486;6.610;2023-08-24T07:57:40;21.60;1.00
3005;DHT22;1512;51.486;6.610;2023-08-24T08:01:49;21.80;1.00
3005;DHT22;1512;51.486;6.610;2023-08-24T08:05:58;21.90;1.00
3005;DHT22;1512;51.486;6.610;2023-08-24T08:10:07;22.10;1.00
3005;DHT22;1512;51.486;6.610;2023-08-24T08:14:16;22.20;1.00
3005;DHT22;1512;51.486;6.610;2023-08-24T08:18:25;22.50;1.00
3005;DHT22;1512;51.486;6.610;2023-08-24T08:22:34;22.70;1.00
3005;DHT22;1512;51.486;6.610;2023-08-24T08:26:44;22.80;1.00
3005;DHT22;1512;51.486;6.610;2023-08-24T08:30:52;22.90;1.00
3005;DHT22;1512;51.486;6.610;2023-08-24T08:35:01;23.10;1.00
3005;DHT22;1512;51.486;6.610;2023-08-24T08:39:11;23.30;1.00
3005;DHT22;1512;51.486;6.610;2023-08-24T08:43:22;23.50;1.00
3005;DHT22;1512;51.486;6.610;2023-08-24T08:47:31;23.60;1.00
3005;DHT22;1512;51.486;6.610;2023-08-24T08:51:40;23.70;1.00
3005;DHT22;1512;51.486;6.610;2023-08-24T08:55:54;23.80;1.00
3005;DHT22;1512;51.486;6.610;2023-08-24T09:00:04;24.00;1.00
3005;DHT22;1512;51.486;6.610;2023-08-24T09:04:12;24.20;1.00
3005;DHT22;1512;51.486;6.610;2023-08-24T09:08:41;24.40;1.00
3005;DHT22;1512;51.486;6.610;2023-08-24T09:12:50;24.50;1.00
3005;DHT22;1512;51.486;6.610;2023-08-24T09:16:59;24.70;1.00
3005;DHT22;1512;51.486;6.610;2023-08-24T09:21:13;24.90;1.00
3005;DHT22;1512;51.486;6.610;2023-08-24T09:25:21;25.10;1.00
3005;DHT22;1512;51.486;6.610;2023-08-24T09:29:33;25.20;1.00
3005;DHT22;1512;51.486;6.610;2023-08-24T09:33:43;25.30;1.00
3005;DHT22;1512;51.486;6.610;2023-08-24T09:37:55;25.40;1.00
3005;DHT22;1512;51.486;6.610;2023-08-24T09:42:04;25.50;1.00
3005;DHT22;1512;51.486;6.610;2023-08-24T09:46:18;25.60;1.00
3005;DHT22;1512;51.486;6.610;2023-08-24T09:50:25;25.80;1.00
3005;DHT22;1512;51.486;6.610;2023-08-24T09:54:38;25.90;1.00
3005;DHT22;1512;51.486;6.610;2023-08-24T09:58:50;26.00;99.90
3005;DHT22;1512;51.486;6.610;2023-08-24T10:03:01;26.10;1.00
3005;DHT22;1512;51.486;6.610;2023-08-24T10:07:12;26.20;1.00
3005;DHT22;1512;51.486;6.610;2023-08-24T10:11:45;26.30;1.00
3005;DHT22;1512;51.486;6.610;2023-08-24T10:15:54;26.40;1.00
3005;DHT22;1512;51.486;6.610;2023-08-24T10:20:05;26.50;1.00
3005;DHT22;1512;51.486;6.610;2023-08-24T10:24:17;26.60;1.00
3005;DHT22;1512;51.486;6.610;2023-08-24T10:28:28;26.70;99.90
3005;DHT22;1512;51.486;6.610;2023-08-24T10:32:37;26.70;99.90
3005;DHT22;1512;51.486;6.610;2023-08-24T10:36:50;26.80;99.90
3005;DHT22;1512;51.486;6.610;2023-08-24T10:41:03;26.80;99.90
3005;DHT22;1512;51.486;6.610;2023-08-24T10:45:15;26.80;99.90
3005;DHT22;1512;51.486;6.610;2023-08-24T10:49:29;26.80;99.90
3005;DHT22;1512;51.486;6.610;2023-08-24T10:53:40;26.90;1.00
3005;DHT22;1512;51.486;6.610;2023-08-24T10:58:00;27.00;1.00
3005;DHT22;1512;51.486;6.610;2023-08-24T11:02:28;27.00;1.00
3005;DHT22;1512;51.486;6.610;2023-08-24T11:06:54;27.00;99.90
3005;DHT22;1512;51.486;6.610;2023-08-24T11:11:03;27.00;1.00
3005;DHT22;1512;51.486;6.610;2023-08-24T11:15:13;27.00;1.00
3005;DHT22;1512;51.486;6.610;2023-08-24T11:19:23;26.90;99.90
3005;DHT22;1512;51.486;6.610;2023-08-24T11:23:32;26.80;1.00
3005;DHT22;1512;51.486;6.610;2023-08-24T11:27:41;26.70;99.90
3005;DHT22;1512;51.486;6.610;2023-08-24T11:31:52;26.60;1.00
3005;DHT22;1512;51.486;6.610;2023-08-24T11:36:03;26.50;1.00
3005;DHT22;1512;51.486;6.610;2023-08-24T11:40:16;26.40;1.00
3005;DHT22;1512;51.486;6.610;2023-08-24T11:44:27;26.20;99.90
3005;DHT22;1512;51.486;6.610;2023-08-24T11:48:38;26.10;99.90
3005;DHT22;1512;51.486;6.610;2023-08-24T11:52:47;26.10;1.00
3005;DHT22;1512;51.486;6.610;2023-08-24T11:56:58;26.10;1.00
3005;DHT22;1512;51.486;6.610;2023-08-24T12:01:08;26.20;1.00
3005;DHT22;1512;51.486;6.610;2023-08-24T12:05:24;26.30;1.00
3005;DHT22;1512;51.486;6.610;2023-08-24T12:09:34;26.50;1.00
3005;DHT22;1512;51.486;6.610;2023-08-24T12:13:50;26.60;1.00
3005;DHT22;1512;51.486;6.610;2023-08-24T12:18:08;26.70;1.00
3005;DHT22;1512;51.486;6.610;2023-08-24T12:22:20;26.70;1.00
3005;DHT22;1512;51.486;6.610;2023-08-24T12:26:29;26.70;1.00
3005;DHT22;1512;51.486;6.610;2023-08-24T12:30:48;26.60;1.00
3005;DHT22;1512;51.486;6.610;2023-08-24T12:34:58;26.50;1.00
3005;DHT22;1512;51.486;6.610;2023-08-24T12:39:07;26.30;1.00
3005;DHT22;1512;51.486;6.610;2023-08-24T12:43:18;26.30;1.00
3005;DHT22;1512;51.486;6.610;2023-08-24T12:47:26;26.20;1.00
3005;DHT22;1512;51.486;6.610;2023-08-24T12:51:35;26.10;1.00
3005;DHT22;1512;51.486;6.610;2023-08-24T12:55:45;26.00;1.00
3005;DHT22;1512;51.486;6.610;2023-08-24T12:59:53;26.00;1.00
3005;DHT22;1512;51.486;6.610;2023-08-24T13:04:03;26.10;1.00
3005;DHT22;1512;51.486;6.610;2023-08-24T13:08:11;26.00;1.00
3005;DHT22;1512;51.486;6.610;2023-08-24T13:12:20;26.00;1.00
3005;DHT22;1512;51.486;6.610;2023-08-24T13:16:29;25.90;1.00
3005;DHT22;1512;51.486;6.610;2023-08-24T13:20:39;25.90;1.00
3005;DHT22;1512;51.486;6.610;2023-08-24T13:24:48;25.80;1.00
3005;DHT22;1512;51.486;6.610;2023-08-24T13:28:57;25.80;1.00
3005;DHT22;1512;51.486;6.610;2023-08-24T13:33:06;25.80;1.00
3005;DHT22;1512;51.486;6.610;2023-08-24T13:37:17;25.80;1.00
3005;DHT22;1512;51.486;6.610;2023-08-24T13:41:26;25.80;1.00
3005;DHT22;1512;51.486;6.610;2023-08-24T13:45:35;25.80;1.00
3005;DHT22;1512;51.486;6.610;2023-08-24T13:49:44;25.80;1.00
3005;DHT22;1512;51.486;6.610;2023-08-24T13:53:52;25.80;1.00
3005;DHT22;1512;51.486;6.610;2023-08-24T13:58:01;25.80;1.00
3005;DHT22;1512;51.486;6.610;2023-08-24T14:02:10;25.80;1.00
3005;DHT22;1512;51.486;6.610;2023-08-24T14:06:19;25.80;1.00
3005;DHT22;1512;51.486;6.610;2023-08-24T14:10:28;25.70;1.00
3005;DHT22;1512;51.486;6.610;2023-08-24T14:14:37;25.70;1.00
3005;DHT22;1512;51.486;6.610;2023-08-24T14:18:46;25.60;1.00
3005;DHT22;1512;51.486;6.610;2023-08-24T14:22:55;25.50;1.00
3005;DHT22;1512;51.486;6.610;2023-08-24T14:27:04;25.50;1.00
3005;DHT22;1512;51.486;6.610;2023-08-24T14:31:13;25.40;1.00
3005;DHT22;1512;51.486;6.610;2023-08-24T14:35:22;25.40;1.00
3005;DHT22;1512;51.486;6.610;2023-08-24T14:39:31;25.40;1.00
3005;DHT22;1512;51.486;6.610;2023-08-24T14:43:40;25.30;1.00
3005;DHT22;1512;51.486;6.610;2023-08-24T14:47:48;25.30;1.00
3005;DHT22;1512;51.486;6.610;2023-08-24T14:51:58;25.20;1.00
3005;DHT22;1512;51.486;6.610;2023-08-24T14:56:07;25.20;1.00
3005;DHT22;1512;51.486;6.610;2023-08-24T15:00:17;25.10;1.00
3005;DHT22;1512;51.486;6.610;2023-08-24T15:04:26;25.10;1.00
3005;DHT22;1512;51.486;6.610;2023-08-24T15:08:35;25.10;1.00
3005;DHT22;1512;51.486;6.610;2023-08-24T15:12:45;24.90;1.00
3005;DHT22;1512;51.486;6.610;2023-08-24T15:16:57;24.80;1.00
3005;DHT22;1512;51.486;6.610;2023-08-24T15:21:06;24.80;1.00
3005;DHT22;1512;51.486;6.610;2023-08-24T15:25:16;24.70;1.00
3005;DHT22;1512;51.486;6.610;2023-08-24T15:29:25;24.60;1.00
3005;DHT22;1512;51.486;6.610;2023-08-24T15:33:33;24.40;1.00
3005;DHT22;1512;51.486;6.610;2023-08-24T15:37:42;24.20;1.00
3005;DHT22;1512;51.486;6.610;2023-08-24T15:41:51;24.00;1.00
3005;DHT22;1512;51.486;6.610;2023-08-24T15:46:00;23.80;1.00
3005;DHT22;1512;51.486;6.610;2023-08-24T15:50:08;23.70;1.00
3005;DHT22;1512;51.486;6.610;2023-08-24T15:54:18;23.60;1.00
3005;DHT22;1512;51.486;6.610;2023-08-24T15:58:26;23.50;1.00
3005;DHT22;1512;51.486;6.610;2023-08-24T16:02:37;23.40;1.00
3005;DHT22;1512;51.486;6.610;2023-08-24T16:06:46;23.30;1.00
3005;DHT22;1512;51.486;6.610;2023-08-24T16:10:57;23.20;1.00
3005;DHT22;1512;51.486;6.610;2023-08-24T16:15:06;23.20;1.00
3005;DHT22;1512;51.486;6.610;2023-08-24T16:19:15;23.20;1.00
3005;DHT22;1512;51.486;6.610;2023-08-24T16:23:24;23.20;1.00
3005;DHT22;1512;51.486;6.610;2023-08-24T16:27:34;23.20;1.00
3005;DHT22;1512;51.486;6.610;2023-08-24T16:31:42;23.20;1.00
3005;DHT22;1512;51.486;6.610;2023-08-24T16:35:51;23.20;1.00
3005;DHT22;1512;51.486;6.610;2023-08-24T16:39:59;23.20;1.00
3005;DHT22;1512;51.486;6.610;2023-08-24T16:44:08;23.30;1.00
3005;DHT22;1512;51.486;6.610;2023-08-24T16:48:17;23.40;1.00
3005;DHT22;1512;51.486;6.610;2023-08-24T16:52:25;23.40;1.00
3005;DHT22;1512;51.486;6.610;2023-08-24T16:56:34;23.40;1.00
3005;DHT22;1512;51.486;6.610;2023-08-24T17:00:43;23.40;1.00
3005;DHT22;1512;51.486;6.610;2023-08-24T17:04:51;23.40;1.00
3005;DHT22;1512;51.486;6.610;2023-08-24T17:09:00;23.40;1.00
3005;DHT22;1512;51.486;6.610;2023-08-24T17:13:09;23.40;1.00
3005;DHT22;1512;51.486;6.610;2023-08-24T17:17:18;23.30;1.00
3005;DHT22;1512;51.486;6.610;2023-08-24T17:21:27;23.30;1.00
3005;DHT22;1512;51.486;6.610;2023-08-24T17:25:44;23.40;1.00
3005;DHT22;1512;51.486;6.610;2023-08-24T17:29:53;23.40;1.00
3005;DHT22;1512;51.486;6.610;2023-08-24T17:34:02;23.40;1.00
3005;DHT22;1512;51.486;6.610;2023-08-24T17:38:13;23.30;1.00
3005;DHT22;1512;51.486;6.610;2023-08-24T17:42:22;23.30;1.00
3005;DHT22;1512;51.486;6.610;2023-08-24T17:46:33;23.30;1.00
3005;DHT22;1512;51.486;6.610;2023-08-24T17:50:54;23.30;1.00
3005;DHT22;1512;51.486;6.610;2023-08-24T17:55:05;23.30;1.00
3005;DHT22;1512;51.486;6.610;2023-08-24T17:59:13;23.30;1.00
3005;DHT22;1512;51.486;6.610;2023-08-24T18:03:22;23.30;1.00
3005;DHT22;1512;51.486;6.610;2023-08-24T18:07:31;23.30;1.00
3005;DHT22;1512;51.486;6.610;2023-08-24T18:11:40;23.20;1.00
3005;DHT22;1512;51.486;6.610;2023-08-24T18:15:49;23.20;1.00
3005;DHT22;1512;51.486;6.610;2023-08-24T18:19:58;23.10;1.00
3005;DHT22;1512;51.486;6.610;2023-08-24T18:24:08;23.10;1.00
3005;DHT22;1512;51.486;6.610;2023-08-24T18:28:17;23.00;1.00
3005;DHT22;1512;51.486;6.610;2023-08-24T18:32:26;22.80;1.00
3005;DHT22;1512;51.486;6.610;2023-08-24T18:36:34;22.70;1.00
3005;DHT22;1512;51.486;6.610;2023-08-24T18:40:51;22.60;1.00
3005;DHT22;1512;51.486;6.610;2023-08-24T18:44:57;22.60;1.00
3005;DHT22;1512;51.486;6.610;2023-08-24T18:49:05;22.50;1.00
3005;DHT22;1512;51.486;6.610;2023-08-24T18:53:14;22.40;1.00
3005;DHT22;1512;51.486;6.610;2023-08-24T18:57:23;22.40;1.00
3005;DHT22;1512;51.486;6.610;2023-08-24T19:01:32;22.30;1.00
3005;DHT22;1512;51.486;6.610;2023-08-24T19:05:42;22.30;1.00
3005;DHT22;1512;51.486;6.610;2023-08-24T19:09:52;22.30;1.00
3005;DHT22;1512;51.486;6.610;2023-08-24T19:14:01;22.20;1.00
3005;DHT22;1512;51.486;6.610;2023-08-24T19:18:10;22.20;1.00
3005;DHT22;1512;51.486;6.610;2023-08-24T19:22:19;22.10;1.00
3005;DHT22;1512;51.486;6.610;2023-08-24T19:26:27;22.00;1.00
3005;DHT22;1512;51.486;6.610;2023-08-24T19:30:38;22.10;1.00
3005;DHT22;1512;51.486;6.610;2023-08-24T19:34:46;22.10;1.00
3005;DHT22;1512;51.486;6.610;2023-08-24T19:38:55;22.10;1.00
3005;DHT22;1512;51.486;6.610;2023-08-24T19:43:05;22.10;1.00
3005;DHT22;1512;51.486;6.610;2023-08-24T19:47:14;22.00;1.00
3005;DHT22;1512;51.486;6.610;2023-08-24T19:51:23;22.00;1.00
3005;DHT22;1512;51.486;6.610;2023-08-24T19:55:31;21.90;1.00
3005;DHT22;1512;51.486;6.610;2023-08-24T19:59:40;21.90;1.00
3005;DHT22;1512;51.486;6.610;2023-08-24T20:03:49;21.80;1.00
3005;DHT22;1512;51.486;6.610;2023-08-24T20:07:57;21.70;1.00
3005;DHT22;1512;51.486;6.610;2023-08-24T20:12:06;21.70;1.00
3005;DHT22;1512;51.486;6.610;2023-08-24T20:16:15;21.60;4.80
3005;DHT22;1512;51.486;6.610;2023-08-24T20:20:24;21.50;40.50
3005;DHT22;1512;51.486;6.610;2023-08-24T20:24:33;21.50;95.70
3005;DHT22;1512;51.486;6.610;2023-08-24T20:28:42;21.40;99.90
3005;DHT22;1512;51.486;6.610;2023-08-24T20:32:50;21.30;99.90
3005;DHT22;1512;51.486;6.610;2023-08-24T20:36:59;21.30;99.90
3005;DHT22;1512;51.486;6.610;2023-08-24T20:41:07;21.20;99.90
3005;DHT22;1512;51.486;6.610;2023-08-24T20:45:17;21.20;99.90
3005;DHT22;1512;51.486;6.610;2023-08-24T20:49:26;21.20;99.90
3005;DHT22;1512;51.486;6.610;2023-08-24T20:53:36;21.30;99.90
3005;DHT22;1512;51.486;6.610;2023-08-24T20:57:44;21.30;99.90
3005;DHT22;1512;51.486;6.610;2023-08-24T21:01:53;21.30;99.90
3005;DHT22;1512;51.486;6.610;2023-08-24T21:06:03;21.20;99.90
3005;DHT22;1512;51.486;6.610;2023-08-24T21:10:12;21.20;99.90
3005;DHT22;1512;51.486;6.610;2023-08-24T21:14:21;21.10;99.90
3005;DHT22;1512;51.486;6.610;2023-08-24T21:18:30;21.00;99.90
3005;DHT22;1512;51.486;6.610;2023-08-24T21:22:58;21.00;99.90
3005;DHT22;1512;51.486;6.610;2023-08-24T21:27:06;21.00;99.90
3005;DHT22;1512;51.486;6.610;2023-08-24T21:31:15;21.00;99.90
3005;DHT22;1512;51.486;6.610;2023-08-24T21:35:24;21.00;99.90
3005;DHT22;1512;51.486;6.610;2023-08-24T21:39:33;20.90;99.90
3005;DHT22;1512;51.486;6.610;2023-08-24T21:43:41;20.90;99.90
3005;DHT22;1512;51.486;6.610;2023-08-24T21:47:50;20.80;1.00
3005;DHT22;1512;51.486;6.610;2023-08-24T21:51:59;20.80;1.00
3005;DHT22;1512;51.486;6.610;2023-08-24T21:56:08;20.70;1.00
3005;DHT22;1512;51.486;6.610;2023-08-24T22:00:17;20.70;1.00
3005;DHT22;1512;51.486;6.610;2023-08-24T22:04:26;20.70;99.90
3005;DHT22;1512;51.486;6.610;2023-08-24T22:08:34;20.70;99.90
3005;DHT22;1512;51.486;6.610;2023-08-24T22:12:43;20.70;99.90
3005;DHT22;1512;51.486;6.610;2023-08-24T22:16:52;20.70;99.90
3005;DHT22;1512;51.486;6.610;2023-08-24T22:21:01;20.80;1.00
3005;DHT22;1512;51.486;6.610;2023-08-24T22:25:10;20.80;1.00
3005;DHT22;1512;51.486;6.610;2023-08-24T22:29:18;20.80;1.00
3005;DHT22;1512;51.486;6.610;2023-08-24T22:33:27;20.80;99.90
3005;DHT22;1512;51.486;6.610;2023-08-24T22:37:37;20.90;99.90
3005;DHT22;1512;51.486;6.610;2023-08-24T22:41:46;20.90;99.90
3005;DHT22;1512;51.486;6.610;2023-08-24T22:45:55;20.90;99.90
3005;DHT22;1512;51.486;6.610;2023-08-24T22:50:06;20.80;99.90
3005;DHT22;1512;51.486;6.610;2023-08-24T22:54:15;20.90;99.90
3005;DHT22;1512;51.486;6.610;2023-08-24T22:58:24;20.80;99.90
3005;DHT22;1512;51.486;6.610;2023-08-24T23:07:20;20.90;99.90
3005;DHT22;1512;51.486;6.610;2023-08-24T23:11:28;20.80;95.30
3005;DHT22;1512;51.486;6.610;2023-08-24T23:15:37;20.80;16.20
3005;DHT22;1512;51.486;6.610;2023-08-24T23:19:47;20.80;1.00
3005;DHT22;1512;51.486;6.610;2023-08-24T23:23:55;20.70;99.90
3005;DHT22;1512;51.486;6.610;2023-08-24T23:28:06;20.60;99.90
3005;DHT22;1512;51.486;6.610;2023-08-24T23:32:16;20.50;1.00
3005;DHT22;1512;51.486;6.610;2023-08-24T23:36:24;20.40;1.00
3005;DHT22;1512;51.486;6.610;2023-08-24T23:40:36;20.40;1.00
3005;DHT22;1512;51.486;6.610;2023-08-24T23:44:45;20.40;1.00
3005;DHT22;1512;51.486;6.610;2023-08-24T23:48:54;20.30;53.00
3005;DHT22;1512;51.486;6.610;2023-08-24T23:53:03;20.30;99.90
3005;DHT22;1512;51.486;6.610;2023-08-24T23:57:12;20.30;1.00
